createdAt,value
2017-02-09T01:01:11.435Z,1028.18
2017-02-09T01:02:11.108Z,1028.2
2017-02-09T01:03:11.045Z,1028.2
2017-02-09T01:04:10.980Z,1028.18
2017-02-09T01:05:10.917Z,1028.22
2017-02-09T01:06:10.853Z,1028.17
2017-02-09T01:07:10.792Z,1028.23
2017-02-09T01:08:10.727Z,1028.22
2017-02-09T01:09:10.663Z,1028.24
2017-02-09T01:10:10.850Z,1028.21
2017-02-09T01:11:10.538Z,1028.23
2017-02-09T01:12:10.472Z,1028.22
2017-02-09T01:13:10.411Z,1028.27
2017-02-09T01:14:10.348Z,1028.23
2017-02-09T01:15:10.283Z,1028.25
2017-02-09T01:16:10.227Z,1028.29
2017-02-09T01:17:10.167Z,1028.26
2017-02-09T01:18:10.093Z,1028.29
2017-02-09T01:19:10.037Z,1028.32
2017-02-09T01:20:10.229Z,1028.27
2017-02-09T01:21:09.903Z,1028.24
2017-02-09T01:22:09.847Z,1028.24
2017-02-09T01:23:09.775Z,1028.22
2017-02-09T01:24:09.712Z,1028.23
2017-02-09T01:25:09.649Z,1028.23
2017-02-09T01:26:09.584Z,1028.21
2017-02-09T01:27:09.522Z,1028.22
2017-02-09T01:28:09.459Z,1028.23
2017-02-09T01:29:09.395Z,1028.23
2017-02-09T01:30:09.332Z,1028.2
2017-02-09T01:31:09.268Z,1028.19
2017-02-09T01:32:09.205Z,1028.22
2017-02-09T01:33:09.140Z,1028.27
2017-02-09T01:34:09.079Z,1028.23
2017-02-09T01:35:09.164Z,1028.23
2017-02-09T01:36:08.951Z,1028.24
2017-02-09T01:37:08.888Z,1028.24
2017-02-09T01:38:08.823Z,1028.22
2017-02-09T01:39:08.762Z,1028.19
2017-02-09T01:40:08.706Z,1028.23
2017-02-09T01:41:08.634Z,1028.18
2017-02-09T01:42:08.570Z,1028.21
2017-02-09T01:43:08.507Z,1028.2
2017-02-09T01:44:08.443Z,1028.23
2017-02-09T01:45:08.400Z,1028.22
2017-02-09T01:46:08.316Z,1028.17
2017-02-09T01:47:08.254Z,1028.2
2017-02-09T01:48:08.193Z,1028.18
2017-02-09T01:49:08.127Z,1028.19
2017-02-09T01:50:08.073Z,1028.21
2017-02-09T01:51:08.000Z,1028.24
2017-02-09T01:52:07.937Z,1028.21
2017-02-09T01:53:07.875Z,1028.2
2017-02-09T01:54:07.808Z,1028.18
2017-02-09T01:55:07.748Z,1028.2
2017-02-09T01:56:07.684Z,1028.14
2017-02-09T01:57:07.707Z,1028.14
2017-02-09T01:58:07.555Z,1028.12
2017-02-09T01:59:07.491Z,1028.17
2017-02-09T02:00:07.432Z,1028.12
2017-02-09T02:01:07.365Z,1028.16
2017-02-09T02:02:07.303Z,1028.08
2017-02-09T02:03:07.238Z,1028.12
2017-02-09T02:04:07.175Z,1028.13
2017-02-09T02:05:07.112Z,1028.13
2017-02-09T02:06:07.048Z,1028.13
2017-02-09T02:07:06.984Z,1028.13
2017-02-09T02:08:06.921Z,1028.2
2017-02-09T02:09:06.860Z,1028.16
2017-02-09T02:10:07.048Z,1028.16
2017-02-09T02:11:06.739Z,1028.21
2017-02-09T02:12:06.668Z,1028.16
2017-02-09T02:13:06.606Z,1028.18
2017-02-09T02:14:06.545Z,1028.19
2017-02-09T02:15:06.479Z,1028.19
2017-02-09T02:16:06.415Z,1028.19
2017-02-09T02:17:06.351Z,1028.19
2017-02-09T02:18:06.290Z,1028.17
2017-02-09T02:19:06.225Z,1028.14
2017-02-09T02:20:06.161Z,1028.17
2017-02-09T02:21:06.097Z,1028.1
2017-02-09T02:22:06.042Z,1028.11
2017-02-09T02:23:05.971Z,1028.14
2017-02-09T02:24:05.907Z,1028.09
2017-02-09T02:25:05.843Z,1028.09
2017-02-09T02:26:05.781Z,1028.1
2017-02-09T02:27:05.718Z,1028.08
2017-02-09T02:28:05.655Z,1028.06
2017-02-09T02:29:05.590Z,1028.07
2017-02-09T02:30:05.536Z,1028.07
2017-02-09T02:31:05.465Z,1028.07
2017-02-09T02:32:05.401Z,1028.06
2017-02-09T02:33:05.337Z,1028.06
2017-02-09T02:34:05.276Z,1028.04
2017-02-09T02:35:05.217Z,1028.04
2017-02-09T02:36:05.148Z,1028
2017-02-09T02:37:05.085Z,1028.01
2017-02-09T02:38:05.024Z,1028.04
2017-02-09T02:39:04.958Z,1028.01
2017-02-09T02:40:05.209Z,1028.03
2017-02-09T02:41:04.833Z,1028
2017-02-09T02:42:04.768Z,1028.02
2017-02-09T02:43:04.706Z,1028.05
2017-02-09T02:44:04.643Z,1028.04
2017-02-09T02:45:04.660Z,1028.05
2017-02-09T02:46:04.516Z,1028.05
2017-02-09T02:47:04.451Z,1028.02
2017-02-09T02:48:04.391Z,1028.06
2017-02-09T02:49:04.325Z,1028.03
2017-02-09T02:50:04.274Z,1028.02
2017-02-09T02:51:04.199Z,1028.09
2017-02-09T02:52:04.134Z,1028.09
2017-02-09T02:53:04.074Z,1028.19
2017-02-09T02:54:04.008Z,1028.17
2017-02-09T02:55:03.945Z,1028.2
2017-02-09T02:56:03.882Z,1028.14
2017-02-09T02:57:03.817Z,1028.13
2017-02-09T02:58:03.756Z,1028.11
2017-02-09T02:59:03.692Z,1028.1
2017-02-09T03:00:03.639Z,1028.14
2017-02-09T03:01:03.566Z,1028.16
2017-02-09T03:02:03.502Z,1028.17
2017-02-09T03:03:03.439Z,1028.17
2017-02-09T03:04:03.377Z,1028.16
2017-02-09T03:05:03.330Z,1028.15
2017-02-09T03:06:03.248Z,1028.13
2017-02-09T03:07:03.185Z,1028.13
2017-02-09T03:08:03.123Z,1028.14
2017-02-09T03:09:03.059Z,1028.14
2017-02-09T03:10:02.996Z,1028.16
2017-02-09T03:11:02.932Z,1028.17
2017-02-09T03:12:02.867Z,1028.11
2017-02-09T03:13:02.807Z,1028.14
2017-02-09T03:14:02.742Z,1028.15
2017-02-09T03:15:02.679Z,1028.11
2017-02-09T03:16:02.614Z,1028.14
2017-02-09T03:17:02.553Z,1028.12
2017-02-09T03:18:02.488Z,1028.17
2017-02-09T03:19:02.425Z,1028.12
2017-02-09T03:21:02.298Z,1028.19
2017-02-09T03:22:02.234Z,1028.21
2017-02-09T03:23:02.171Z,1028.22
2017-02-09T03:24:02.109Z,1028.23
2017-02-09T03:25:02.046Z,1028.23
2017-02-09T03:26:01.983Z,1028.24
2017-02-09T03:27:01.917Z,1028.29
2017-02-09T03:28:01.854Z,1028.33
2017-02-09T03:29:01.811Z,1028.29
2017-02-09T03:30:01.727Z,1028.33
2017-02-09T03:31:01.665Z,1028.32
2017-02-09T03:32:01.611Z,1028.31
2017-02-09T03:33:01.538Z,1028.3
2017-02-09T03:34:01.476Z,1028.3
2017-02-09T03:35:01.410Z,1028.34
2017-02-09T03:36:01.348Z,1028.29
2017-02-09T03:37:01.284Z,1028.29
2017-02-09T03:38:01.220Z,1028.31
2017-02-09T03:39:01.157Z,1028.29
2017-02-09T03:40:01.095Z,1028.31
2017-02-09T03:41:01.030Z,1028.32
2017-02-09T03:42:00.969Z,1028.33
2017-02-09T03:43:00.904Z,1028.35
2017-02-09T03:44:00.841Z,1028.34
2017-02-09T03:45:00.777Z,1028.37
2017-02-09T03:46:00.865Z,1028.36
2017-02-09T03:47:00.650Z,1028.34
2017-02-09T03:48:00.587Z,1028.31
2017-02-09T03:49:00.524Z,1028.33
2017-02-09T03:50:00.459Z,1028.27
2017-02-09T03:51:00.397Z,1028.3
2017-02-09T03:52:00.335Z,1028.32
2017-02-09T03:53:00.269Z,1028.31
2017-02-09T03:54:00.207Z,1028.29
2017-02-09T03:55:00.144Z,1028.32
2017-02-09T03:56:00.079Z,1028.34
2017-02-09T03:57:00.017Z,1028.34
2017-02-09T03:57:59.987Z,1028.33
2017-02-09T03:58:59.889Z,1028.33
2017-02-09T03:59:59.825Z,1028.37
2017-02-09T04:00:59.764Z,1028.38
2017-02-09T04:01:59.699Z,1028.37
2017-02-09T04:02:59.636Z,1028.35
2017-02-09T04:03:59.573Z,1028.38
2017-02-09T04:04:59.513Z,1028.35
2017-02-09T04:05:59.447Z,1028.39
2017-02-09T04:06:59.381Z,1028.4
2017-02-09T04:07:59.325Z,1028.35
2017-02-09T04:08:59.256Z,1028.38
2017-02-09T04:09:59.191Z,1028.35
2017-02-09T04:10:59.129Z,1028.33
2017-02-09T04:11:59.068Z,1028.33
2017-02-09T04:12:59.002Z,1028.36
2017-02-09T04:13:58.937Z,1028.41
2017-02-09T04:14:58.884Z,1028.39
2017-02-09T04:15:58.822Z,1028.4
2017-02-09T04:16:58.750Z,1028.42
2017-02-09T04:17:58.711Z,1028.41
2017-02-09T04:18:58.623Z,1028.41
2017-02-09T04:19:58.559Z,1028.44
2017-02-09T04:20:58.496Z,1028.4
2017-02-09T04:21:58.481Z,1028.47
2017-02-09T04:22:58.385Z,1028.45
2017-02-09T04:23:58.304Z,1028.51
2017-02-09T04:24:58.240Z,1028.46
2017-02-09T04:25:58.177Z,1028.45
2017-02-09T04:26:58.113Z,1028.44
2017-02-09T04:27:58.050Z,1028.44
2017-02-09T04:28:57.986Z,1028.34
2017-02-09T04:29:57.933Z,1028.35
2017-02-09T04:30:57.863Z,1028.36
2017-02-09T04:31:57.796Z,1028.37
2017-02-09T04:32:57.779Z,1028.36
2017-02-09T04:33:57.670Z,1028.37
2017-02-09T04:34:57.607Z,1028.35
2017-02-09T04:35:57.544Z,1028.34
2017-02-09T04:36:57.479Z,1028.37
2017-02-09T04:37:57.417Z,1028.36
2017-02-09T04:38:57.355Z,1028.37
2017-02-09T04:39:57.288Z,1028.36
2017-02-09T04:40:57.227Z,1028.36
2017-02-09T04:41:57.164Z,1028.33
2017-02-09T04:42:57.097Z,1028.33
2017-02-09T04:43:57.052Z,1028.34
2017-02-09T04:44:56.972Z,1028.33
2017-02-09T04:45:56.908Z,1028.33
2017-02-09T04:46:56.844Z,1028.33
2017-02-09T04:47:56.781Z,1028.34
2017-02-09T04:48:56.718Z,1028.34
2017-02-09T04:49:56.658Z,1028.36
2017-02-09T04:50:56.590Z,1028.31
2017-02-09T04:51:56.527Z,1028.33
2017-02-09T04:52:56.464Z,1028.33
2017-02-09T04:53:56.401Z,1028.31
2017-02-09T04:54:56.336Z,1028.27
2017-02-09T04:55:56.273Z,1028.29
2017-02-09T04:56:56.211Z,1028.31
2017-02-09T04:57:56.145Z,1028.27
2017-02-09T04:58:56.082Z,1028.3
2017-02-09T04:59:56.021Z,1028.23
2017-02-09T05:00:55.958Z,1028.25
2017-02-09T05:01:55.893Z,1028.28
2017-02-09T05:02:55.829Z,1028.26
2017-02-09T05:03:55.768Z,1028.26
2017-02-09T05:04:55.703Z,1028.24
2017-02-09T05:05:55.638Z,1028.28
2017-02-09T05:06:55.574Z,1028.3
2017-02-09T05:07:55.513Z,1028.3
2017-02-09T05:08:55.448Z,1028.29
2017-02-09T05:09:55.383Z,1028.29
2017-02-09T05:10:55.320Z,1028.3
2017-02-09T05:11:55.258Z,1028.27
2017-02-09T05:12:55.195Z,1028.27
2017-02-09T05:13:55.130Z,1028.31
2017-02-09T05:14:55.067Z,1028.34
2017-02-09T05:15:55.004Z,1028.35
2017-02-09T05:16:54.938Z,1028.31
2017-02-09T05:17:54.876Z,1028.32
2017-02-09T05:18:54.814Z,1028.31
2017-02-09T05:19:54.749Z,1028.29
2017-02-09T05:20:54.755Z,1028.3
2017-02-09T05:21:54.623Z,1028.35
2017-02-09T05:22:54.559Z,1028.29
2017-02-09T05:23:54.496Z,1028.35
2017-02-09T05:24:54.433Z,1028.35
2017-02-09T05:25:54.372Z,1028.36
2017-02-09T05:26:54.305Z,1028.33
2017-02-09T05:27:54.242Z,1028.31
2017-02-09T05:28:54.178Z,1028.32
2017-02-09T05:29:54.114Z,1028.3
2017-02-09T05:30:54.050Z,1028.27
2017-02-09T05:31:53.986Z,1028.28
2017-02-09T05:32:53.925Z,1028.34
2017-02-09T05:33:53.859Z,1028.33
2017-02-09T05:34:53.795Z,1028.35
2017-02-09T05:35:53.732Z,1028.34
2017-02-09T05:36:53.669Z,1028.35
2017-02-09T05:37:53.606Z,1028.35
2017-02-09T05:38:53.542Z,1028.35
2017-02-09T05:39:53.477Z,1028.42
2017-02-09T05:40:53.416Z,1028.4
2017-02-09T05:41:53.351Z,1028.39
2017-02-09T05:42:53.287Z,1028.39
2017-02-09T05:43:53.225Z,1028.56
2017-02-09T05:44:53.160Z,1028.51
2017-02-09T05:45:53.096Z,1029.16
2017-02-09T05:46:53.034Z,1028.87
2017-02-09T05:47:52.970Z,1028.69
2017-02-09T05:48:52.907Z,1028.67
2017-02-09T05:49:52.845Z,1028.69
2017-02-09T05:50:52.780Z,1028.71
2017-02-09T05:51:52.718Z,1028.71
2017-02-09T05:52:52.653Z,1028.71
2017-02-09T05:53:52.590Z,1028.57
2017-02-09T05:54:52.525Z,1028.48
2017-02-09T05:55:52.462Z,1028.52
2017-02-09T05:56:52.401Z,1028.5
2017-02-09T05:57:52.335Z,1028.52
2017-02-09T05:58:52.273Z,1028.54
2017-02-09T05:59:52.208Z,1028.55
2017-02-09T06:00:52.144Z,1028.58
2017-02-09T06:01:52.083Z,1028.57
2017-02-09T06:02:52.017Z,1028.57
2017-02-09T06:03:51.953Z,1028.64
2017-02-09T06:04:51.889Z,1028.66
2017-02-09T06:05:51.827Z,1028.61
2017-02-09T06:06:51.777Z,1028.62
2017-02-09T06:07:51.701Z,1028.66
2017-02-09T06:08:51.637Z,1028.62
2017-02-09T06:09:51.572Z,1028.62
2017-02-09T06:10:51.507Z,1028.68
2017-02-09T06:11:51.446Z,1028.67
2017-02-09T06:12:51.381Z,1028.72
2017-02-09T06:13:51.320Z,1028.74
2017-02-09T06:14:51.255Z,1028.7
2017-02-09T06:15:51.191Z,1028.71
2017-02-09T06:16:51.128Z,1028.72
2017-02-09T06:17:51.067Z,1028.71
2017-02-09T06:18:51.000Z,1028.7
2017-02-09T06:19:50.936Z,1028.69
2017-02-09T06:20:50.872Z,1028.71
2017-02-09T06:21:50.809Z,1028.69
2017-02-09T06:22:50.746Z,1028.73
2017-02-09T06:23:50.683Z,1028.72
2017-02-09T06:24:50.617Z,1028.68
2017-02-09T06:25:50.556Z,1028.75
2017-02-09T06:26:50.493Z,1028.72
2017-02-09T06:27:50.427Z,1028.72
2017-02-09T06:28:50.363Z,1028.72
2017-02-09T06:29:50.300Z,1028.71
2017-02-09T06:30:50.237Z,1028.68
2017-02-09T06:31:50.174Z,1028.71
2017-02-09T06:32:50.110Z,1028.69
2017-02-09T06:33:50.046Z,1028.71
2017-02-09T06:34:49.983Z,1028.7
2017-02-09T06:35:49.919Z,1028.77
2017-02-09T06:36:49.855Z,1028.74
2017-02-09T06:37:49.791Z,1028.76
2017-02-09T06:38:49.728Z,1028.77
2017-02-09T06:39:49.664Z,1028.75
2017-02-09T06:40:49.605Z,1028.78
2017-02-09T06:41:49.537Z,1028.79
2017-02-09T06:42:49.475Z,1028.77
2017-02-09T06:43:49.410Z,1028.74
2017-02-09T06:44:49.348Z,1028.79
2017-02-09T06:45:49.284Z,1028.78
2017-02-09T06:46:49.219Z,1028.82
2017-02-09T06:47:49.156Z,1028.83
2017-02-09T06:48:49.092Z,1028.82
2017-02-09T06:49:49.029Z,1028.85
2017-02-09T06:50:48.964Z,1028.85
2017-02-09T06:51:48.903Z,1028.86
2017-02-09T06:52:48.838Z,1028.89
2017-02-09T06:53:48.776Z,1028.84
2017-02-09T06:54:48.711Z,1028.89
2017-02-09T06:55:48.645Z,1028.84
2017-02-09T06:56:48.584Z,1028.89
2017-02-09T06:57:48.522Z,1028.9
2017-02-09T06:58:48.455Z,1028.86
2017-02-09T06:59:48.391Z,1028.89
2017-02-09T07:00:48.328Z,1028.86
2017-02-09T07:01:48.263Z,1028.91
2017-02-09T07:02:48.202Z,1028.89
2017-02-09T07:03:48.137Z,1028.9
2017-02-09T07:04:48.075Z,1028.9
2017-02-09T07:05:48.106Z,1028.88
2017-02-09T07:06:47.946Z,1028.88
2017-02-09T07:07:47.898Z,1028.87
2017-02-09T07:08:47.818Z,1028.88
2017-02-09T07:09:47.755Z,1028.88
2017-02-09T07:10:47.690Z,1028.86
2017-02-09T07:11:47.627Z,1028.86
2017-02-09T07:12:47.564Z,1028.86
2017-02-09T07:13:47.499Z,1028.82
2017-02-09T07:14:47.436Z,1028.86
2017-02-09T07:15:47.372Z,1028.87
2017-02-09T07:16:47.309Z,1028.91
2017-02-09T07:17:47.244Z,1028.93
2017-02-09T07:18:47.182Z,1028.93
2017-02-09T07:19:47.117Z,1028.96
2017-02-09T07:20:47.065Z,1028.97
2017-02-09T07:21:46.991Z,1028.97
2017-02-09T07:22:46.929Z,1029
2017-02-09T07:23:46.863Z,1029.01
2017-02-09T07:24:46.799Z,1029.02
2017-02-09T07:25:46.737Z,1029.02
2017-02-09T07:26:46.672Z,1029.02
2017-02-09T07:27:46.609Z,1029.01
2017-02-09T07:28:46.544Z,1029.03
2017-02-09T07:29:46.482Z,1029.03
2017-02-09T07:30:46.441Z,1029.02
2017-02-09T07:31:46.353Z,1029.04
2017-02-09T07:32:46.291Z,1029.05
2017-02-09T07:33:46.228Z,1029.06
2017-02-09T07:34:46.163Z,1029.1
2017-02-09T07:35:46.100Z,1029.08
2017-02-09T07:36:46.036Z,1029.06
2017-02-09T07:37:45.973Z,1029.06
2017-02-09T07:38:45.909Z,1029.08
2017-02-09T07:39:45.844Z,1029.12
2017-02-09T07:40:45.781Z,1029.09
2017-02-09T07:41:45.716Z,1029.08
2017-02-09T07:42:45.657Z,1029.1
2017-02-09T07:43:45.591Z,1029.02
2017-02-09T07:44:45.528Z,1029.08
2017-02-09T07:45:45.466Z,1029.04
2017-02-09T07:46:45.401Z,1029.05
2017-02-09T07:47:45.337Z,1029.03
2017-02-09T07:48:45.273Z,1029.04
2017-02-09T07:49:45.210Z,1029.01
2017-02-09T07:50:45.145Z,1029.04
2017-02-09T07:51:45.081Z,1029.03
2017-02-09T07:52:45.016Z,1029.07
2017-02-09T07:53:44.955Z,1029.01
2017-02-09T07:54:44.890Z,1029.02
2017-02-09T07:55:44.827Z,1029.01
2017-02-09T07:56:44.764Z,1029.01
2017-02-09T07:57:44.699Z,1029
2017-02-09T07:58:44.635Z,1028.99
2017-02-09T07:59:44.575Z,1029
2017-02-09T08:00:44.513Z,1029
2017-02-09T08:01:44.446Z,1028.94
2017-02-09T08:02:44.381Z,1028.97
2017-02-09T08:03:44.319Z,1028.98
2017-02-09T08:04:44.254Z,1028.99
2017-02-09T08:05:44.190Z,1028.99
2017-02-09T08:06:44.129Z,1028.98
2017-02-09T08:07:44.079Z,1028.97
2017-02-09T08:08:43.999Z,1028.99
2017-02-09T08:09:44.189Z,1029.08
2017-02-09T08:10:44.224Z,1029.02
2017-02-09T08:11:43.809Z,1029.04
2017-02-09T08:12:43.747Z,1029.02
2017-02-09T08:13:43.682Z,1028.99
2017-02-09T08:14:43.618Z,1028.98
2017-02-09T08:15:43.555Z,1028.96
2017-02-09T08:16:43.491Z,1028.93
2017-02-09T08:17:43.427Z,1029
2017-02-09T08:18:43.364Z,1029
2017-02-09T08:19:43.305Z,1029.03
2017-02-09T08:20:43.237Z,1029.04
2017-02-09T08:21:43.175Z,1029.04
2017-02-09T08:22:43.111Z,1029.08
2017-02-09T08:23:43.046Z,1029.08
2017-02-09T08:24:42.984Z,1029.07
2017-02-09T08:25:42.920Z,1029.06
2017-02-09T08:26:42.855Z,1029.03
2017-02-09T08:27:42.793Z,1029.06
2017-02-09T08:28:42.729Z,1029.03
2017-02-09T08:29:42.665Z,1029.09
2017-02-09T08:30:42.603Z,1029.07
2017-02-09T08:31:42.552Z,1029.08
2017-02-09T08:32:42.475Z,1029.03
2017-02-09T08:33:42.412Z,1029.09
2017-02-09T08:34:42.348Z,1029.03
2017-02-09T08:35:42.285Z,1029.04
2017-02-09T08:36:42.222Z,1029.05
2017-02-09T08:37:42.157Z,1029.03
2017-02-09T08:38:42.094Z,1028.98
2017-02-09T08:39:42.032Z,1028.98
2017-02-09T08:40:41.967Z,1029.01
2017-02-09T08:41:41.904Z,1028.99
2017-02-09T08:42:41.841Z,1028.97
2017-02-09T08:43:41.778Z,1028.99
2017-02-09T08:44:41.714Z,1028.98
2017-02-09T08:45:41.656Z,1029.03
2017-02-09T08:46:41.587Z,1029.04
2017-02-09T08:47:41.523Z,1029.04
2017-02-09T08:48:41.462Z,1029.06
2017-02-09T08:49:41.399Z,1029.05
2017-02-09T08:50:41.588Z,1029
2017-02-09T08:51:41.270Z,1029.03
2017-02-09T08:52:41.215Z,1029.04
2017-02-09T08:53:41.151Z,1029.01
2017-02-09T08:54:41.083Z,1029
2017-02-09T08:55:41.268Z,1029.02
2017-02-09T08:56:40.957Z,1028.97
2017-02-09T08:57:40.894Z,1028.99
2017-02-09T08:58:40.841Z,1029.01
2017-02-09T08:59:40.765Z,1029.01
2017-02-09T09:00:40.953Z,1028.98
2017-02-09T09:01:40.639Z,1028.96
2017-02-09T09:02:40.577Z,1028.96
2017-02-09T09:03:40.511Z,1028.94
2017-02-09T09:04:40.454Z,1028.97
2017-02-09T09:05:40.389Z,1028.99
2017-02-09T09:06:40.320Z,1028.97
2017-02-09T09:07:40.259Z,1028.98
2017-02-09T09:08:40.196Z,1029.01
2017-02-09T09:09:40.136Z,1028.97
2017-02-09T09:10:40.070Z,1029
2017-02-09T09:11:40.006Z,1028.98
2017-02-09T09:12:39.943Z,1028.95
2017-02-09T09:13:39.888Z,1028.98
2017-02-09T09:14:39.827Z,1028.93
2017-02-09T09:15:39.753Z,1028.95
2017-02-09T09:16:39.689Z,1029.01
2017-02-09T09:17:39.636Z,1028.99
2017-02-09T09:18:39.563Z,1029.03
2017-02-09T09:19:39.501Z,1029.05
2017-02-09T09:20:39.687Z,1029.03
2017-02-09T09:21:39.373Z,1028.99
2017-02-09T09:22:39.310Z,1029.03
2017-02-09T09:23:39.248Z,1029.01
2017-02-09T09:24:39.183Z,1029.01
2017-02-09T09:25:39.122Z,1028.99
2017-02-09T09:26:39.058Z,1028.98
2017-02-09T09:27:38.993Z,1028.96
2017-02-09T09:28:38.999Z,1028.97
2017-02-09T09:29:38.868Z,1028.97
2017-02-09T09:30:38.804Z,1028.97
2017-02-09T09:31:38.742Z,1028.95
2017-02-09T09:32:38.678Z,1029
2017-02-09T09:33:38.616Z,1028.97
2017-02-09T09:34:38.553Z,1028.98
2017-02-09T09:35:38.488Z,1028.97
2017-02-09T09:36:38.429Z,1029.02
2017-02-09T09:37:38.430Z,1028.96
2017-02-09T09:38:38.297Z,1028.98
2017-02-09T09:39:38.246Z,1028.96
2017-02-09T09:40:38.462Z,1028.95
2017-02-09T09:41:38.111Z,1028.94
2017-02-09T09:42:38.046Z,1028.94
2017-02-09T09:43:37.984Z,1028.96
2017-02-09T09:44:37.919Z,1028.98
2017-02-09T09:45:37.857Z,1028.97
2017-02-09T09:46:37.794Z,1028.96
2017-02-09T09:47:37.734Z,1028.96
2017-02-09T09:48:37.671Z,1028.94
2017-02-09T09:49:37.604Z,1028.86
2017-02-09T09:50:37.540Z,1028.81
2017-02-09T09:51:37.477Z,1028.86
2017-02-09T09:52:37.424Z,1028.87
2017-02-09T09:53:37.350Z,1028.87
2017-02-09T09:54:37.288Z,1028.95
2017-02-09T09:55:37.224Z,1028.96
2017-02-09T09:56:37.162Z,1028.95
2017-02-09T09:57:37.098Z,1028.94
2017-02-09T09:58:37.034Z,1028.94
2017-02-09T09:59:36.971Z,1028.97
2017-02-09T10:00:36.911Z,1028.96
2017-02-09T10:01:36.846Z,1028.99
2017-02-09T10:02:36.781Z,1028.93
2017-02-09T10:03:36.719Z,1028.98
2017-02-09T10:04:36.656Z,1028.97
2017-02-09T10:05:36.593Z,1028.93
2017-02-09T10:06:36.529Z,1028.93
2017-02-09T10:07:36.481Z,1028.96
2017-02-09T10:08:36.402Z,1028.93
2017-02-09T10:09:36.339Z,1028.93
2017-02-09T10:10:36.276Z,1028.93
2017-02-09T10:11:36.211Z,1028.93
2017-02-09T10:12:36.150Z,1028.95
2017-02-09T10:13:36.086Z,1028.87
2017-02-09T10:14:36.022Z,1028.9
2017-02-09T10:15:36.110Z,1028.91
2017-02-09T10:16:35.896Z,1028.87
2017-02-09T10:17:35.832Z,1028.9
2017-02-09T10:18:35.770Z,1028.84
2017-02-09T10:19:35.707Z,1028.86
2017-02-09T10:20:35.946Z,1028.9
2017-02-09T10:21:35.579Z,1028.9
2017-02-09T10:22:35.518Z,1028.84
2017-02-09T10:23:35.452Z,1028.82
2017-02-09T10:24:35.393Z,1028.86
2017-02-09T10:25:35.325Z,1028.81
2017-02-09T10:26:35.262Z,1028.8
2017-02-09T10:27:35.200Z,1028.86
2017-02-09T10:28:35.136Z,1028.88
2017-02-09T10:29:35.126Z,1028.87
2017-02-09T10:30:35.010Z,1028.87
2017-02-09T10:31:34.948Z,1028.85
2017-02-09T10:32:34.884Z,1028.87
2017-02-09T10:33:34.821Z,1028.84
2017-02-09T10:34:34.758Z,1028.86
2017-02-09T10:35:34.695Z,1028.88
2017-02-09T10:36:34.631Z,1028.91
2017-02-09T10:37:34.567Z,1028.88
2017-02-09T10:38:34.503Z,1028.87
2017-02-09T10:39:34.699Z,1028.82
2017-02-09T10:40:34.379Z,1028.8
2017-02-09T10:41:34.315Z,1028.81
2017-02-09T10:42:34.250Z,1028.8
2017-02-09T10:43:34.188Z,1028.86
2017-02-09T10:44:34.137Z,1028.83
2017-02-09T10:45:34.061Z,1028.85
2017-02-09T10:46:33.999Z,1028.82
2017-02-09T10:47:33.934Z,1028.8
2017-02-09T10:48:33.869Z,1028.75
2017-02-09T10:49:33.812Z,1028.74
2017-02-09T10:50:33.744Z,1028.82
2017-02-09T10:51:33.680Z,1028.8
2017-02-09T10:52:33.618Z,1028.81
2017-02-09T10:53:33.554Z,1028.8
2017-02-09T10:54:33.493Z,1028.82
2017-02-09T10:55:33.427Z,1028.79
2017-02-09T10:56:33.363Z,1028.75
2017-02-09T10:57:33.302Z,1028.77
2017-02-09T10:58:33.238Z,1028.74
2017-02-09T10:59:33.174Z,1028.77
2017-02-09T11:00:33.113Z,1028.75
2017-02-09T11:01:33.049Z,1028.72
2017-02-09T11:02:32.986Z,1028.72
2017-02-09T11:03:32.922Z,1028.7
2017-02-09T11:04:32.859Z,1028.74
2017-02-09T11:05:32.796Z,1028.7
2017-02-09T11:06:32.736Z,1028.75
2017-02-09T11:07:32.669Z,1028.76
2017-02-09T11:08:32.606Z,1028.76
2017-02-09T11:09:32.542Z,1028.73
2017-02-09T11:10:32.488Z,1028.69
2017-02-09T11:11:32.424Z,1028.72
2017-02-09T11:12:32.352Z,1028.69
2017-02-09T11:13:32.288Z,1028.69
2017-02-09T11:14:32.234Z,1028.67
2017-02-09T11:15:32.161Z,1028.63
2017-02-09T11:16:32.099Z,1028.62
2017-02-09T11:17:32.035Z,1028.57
2017-02-09T11:18:31.972Z,1028.59
2017-02-09T11:19:31.909Z,1028.57
2017-02-09T11:20:31.878Z,1028.56
2017-02-09T11:21:31.782Z,1028.52
2017-02-09T11:22:31.718Z,1028.53
2017-02-09T11:23:31.692Z,1028.57
2017-02-09T11:24:31.591Z,1028.58
2017-02-09T11:25:31.529Z,1028.56
2017-02-09T11:26:31.465Z,1028.55
2017-02-09T11:27:31.402Z,1028.49
2017-02-09T11:28:31.379Z,1028.48
2017-02-09T11:29:31.334Z,1028.5
2017-02-09T11:30:31.234Z,1028.47
2017-02-09T11:31:31.150Z,1028.5
2017-02-09T11:32:31.087Z,1028.45
2017-02-09T11:33:31.022Z,1028.45
2017-02-09T11:34:30.962Z,1028.41
2017-02-09T11:35:30.895Z,1028.4
2017-02-09T11:36:30.861Z,1028.39
2017-02-09T11:37:30.768Z,1028.38
2017-02-09T11:38:30.706Z,1028.4
2017-02-09T11:39:30.643Z,1028.38
2017-02-09T11:40:30.580Z,1028.4
2017-02-09T11:41:30.765Z,1028.39
2017-02-09T11:42:30.454Z,1028.37
2017-02-09T11:43:30.394Z,1028.37
2017-02-09T11:44:30.330Z,1028.36
2017-02-09T11:45:30.364Z,1028.4
2017-02-09T11:46:30.198Z,1028.41
2017-02-09T11:47:30.140Z,1028.39
2017-02-09T11:48:30.075Z,1028.41
2017-02-09T11:49:30.010Z,1028.36
2017-02-09T11:50:29.953Z,1028.38
2017-02-09T11:51:29.925Z,1028.36
2017-02-09T11:52:29.821Z,1028.37
2017-02-09T11:53:29.755Z,1028.41
2017-02-09T11:54:29.692Z,1028.37
2017-02-09T11:55:29.630Z,1028.36
2017-02-09T11:56:29.566Z,1028.34
2017-02-09T11:57:29.502Z,1028.35
2017-02-09T11:58:29.438Z,1028.34
2017-02-09T11:59:29.378Z,1028.34
2017-02-09T12:00:29.313Z,1028.35
2017-02-09T12:01:29.299Z,1028.34
2017-02-09T12:02:29.251Z,1028.32
2017-02-09T12:03:29.159Z,1028.33
2017-02-09T12:04:29.059Z,1028.35
2017-02-09T12:05:28.997Z,1028.3
2017-02-09T12:06:28.935Z,1028.31
2017-02-09T12:07:28.871Z,1028.34
2017-02-09T12:08:28.806Z,1028.34
2017-02-09T12:09:28.743Z,1028.3
2017-02-09T12:10:28.681Z,1028.26
2017-02-09T12:11:28.618Z,1028.31
2017-02-09T12:12:28.554Z,1028.18
2017-02-09T12:13:28.491Z,1028.17
2017-02-09T12:14:28.428Z,1028.17
2017-02-09T12:15:28.366Z,1028.12
2017-02-09T12:16:28.307Z,1028.16
2017-02-09T12:17:28.239Z,1028.16
2017-02-09T12:18:28.176Z,1028.07
2017-02-09T12:19:28.110Z,1028.07
2017-02-09T12:20:28.048Z,1028.13
2017-02-09T12:21:27.984Z,1028.08
2017-02-09T12:22:27.982Z,1028.03
2017-02-09T12:23:27.895Z,1028
2017-02-09T12:24:27.876Z,1028.02
2017-02-09T12:25:28.137Z,1028.04
2017-02-09T12:26:27.667Z,1028.05
2017-02-09T12:27:27.613Z,1028.02
2017-02-09T12:28:27.542Z,1027.99
2017-02-09T12:29:27.506Z,1028
2017-02-09T12:30:27.416Z,1028.06
2017-02-09T12:31:27.352Z,1027.97
2017-02-09T12:32:27.288Z,1028
2017-02-09T12:33:27.226Z,1028
2017-02-09T12:34:27.164Z,1028.03
2017-02-09T12:35:27.100Z,1028.03
2017-02-09T12:36:27.036Z,1027.98
2017-02-09T12:37:26.973Z,1028.02
2017-02-09T12:38:26.917Z,1027.98
2017-02-09T12:39:26.846Z,1028.01
2017-02-09T12:40:27.033Z,1028
2017-02-09T12:41:26.719Z,1028
2017-02-09T12:42:26.658Z,1028.05
2017-02-09T12:43:26.596Z,1028.02
2017-02-09T12:44:26.533Z,1028.01
2017-02-09T12:45:26.572Z,1027.98
2017-02-09T12:46:26.404Z,1027.96
2017-02-09T12:47:26.343Z,1027.99
2017-02-09T12:48:26.280Z,1027.98
2017-02-09T12:49:26.214Z,1028
2017-02-09T12:50:26.155Z,1028
2017-02-09T12:51:26.088Z,1027.98
2017-02-09T12:52:26.025Z,1027.97
2017-02-09T12:53:25.971Z,1027.99
2017-02-09T12:54:25.900Z,1028
2017-02-09T12:55:25.845Z,1028
2017-02-09T12:56:25.773Z,1027.99
2017-02-09T12:57:25.710Z,1027.97
2017-02-09T12:58:25.649Z,1027.94
2017-02-09T12:59:25.583Z,1027.95
2017-02-09T13:00:25.522Z,1027.98
2017-02-09T13:01:25.459Z,1027.95
2017-02-09T13:02:25.403Z,1027.99
2017-02-09T13:03:25.330Z,1027.93
2017-02-09T13:04:25.268Z,1027.93
2017-02-09T13:05:25.484Z,1027.91
2017-02-09T13:06:25.141Z,1027.87
2017-02-09T13:07:25.077Z,1027.88
2017-02-09T13:08:25.015Z,1027.86
2017-02-09T13:09:24.952Z,1027.85
2017-02-09T13:10:24.888Z,1027.85